Terminal Aerodrome Forecast
Issued by NWS

Home | Current Version | Previous Version | Text Only | Print | Product List | Glossary On
Versions: 1 2 3 4 5 6 7 8 9 10 11 12
054
FTUS43 KILX 241128
TAFDEC
TAF
KDEC 241128Z 2412/2512 18007KT P6SM SCT250
     FM241700 19010KT P6SM SCT040 BKN250
     FM250800 18006KT P6SM VCSH BKN100=

USA.gov is the U.S. government's official web portal to all federal, state and local government web resources and services.